createdAt,value
2023-01-30T00:00:44.570Z,26.55
2023-01-30T00:02:47.110Z,28.25
2023-01-30T00:04:49.720Z,29.95
2023-01-30T00:06:52.290Z,27.83
2023-01-30T00:08:56.300Z,25.30
2023-01-30T00:10:58.862Z,27.23
2023-01-30T00:13:01.441Z,25.80
2023-01-30T00:15:04.077Z,27.70
2023-01-30T00:17:06.656Z,24.02
2023-01-30T00:19:09.420Z,24.65
2023-01-30T00:21:14.389Z,21.30
2023-01-30T00:23:16.902Z,23.38
2023-01-30T00:25:20.892Z,26.83
2023-01-30T00:27:23.588Z,25.25
2023-01-30T00:29:26.132Z,26.33
2023-01-30T00:31:28.779Z,24.15
2023-01-30T00:33:31.438Z,22.83
2023-01-30T00:35:34.159Z,28.75
2023-01-30T00:37:39.607Z,25.98
2023-01-30T00:39:42.154Z,30.17
2023-01-30T00:42:03.505Z,23.55
2023-01-30T00:44:24.548Z,25.65
2023-01-30T00:47:03.886Z,23.53
2023-01-30T00:49:06.584Z,28.58
2023-01-30T00:51:09.268Z,26.13
2023-01-30T00:53:13.090Z,28.30
2023-01-30T00:55:16.756Z,29.90
2023-01-30T00:57:20.836Z,28.00
2023-01-30T00:59:23.396Z,28.02
2023-01-30T01:01:25.968Z,25.13
2023-01-30T01:03:28.526Z,28.25
2023-01-30T01:05:31.321Z,25.95
2023-01-30T01:07:33.879Z,26.13
2023-01-30T01:09:36.495Z,25.38
2023-01-30T01:11:39.158Z,24.13
2023-01-30T01:13:43.107Z,24.58
2023-01-30T01:15:48.385Z,24.23
2023-01-30T01:17:51.357Z,25.98
2023-01-30T01:19:53.965Z,23.58
2023-01-30T01:21:56.561Z,25.33
2023-01-30T01:24:01.158Z,26.58
2023-01-30T01:26:03.908Z,22.42
2023-01-30T01:28:06.460Z,26.10
2023-01-30T01:30:12.224Z,22.02
2023-01-30T01:32:14.918Z,24.73
2023-01-30T01:34:17.496Z,23.13
2023-01-30T01:36:49.711Z,24.33
2023-01-30T01:38:43.240Z,24.67
2023-01-30T01:41:06.136Z,26.00
2023-01-30T01:43:20.784Z,24.80
2023-01-30T01:45:25.964Z,25.52
2023-01-30T01:47:29.116Z,23.00
2023-01-30T01:49:34.746Z,22.10
2023-01-30T01:51:41.302Z,24.33
2023-01-30T01:53:51.987Z,21.15
2023-01-30T01:55:57.858Z,24.45
2023-01-30T01:58:05.164Z,24.25
2023-01-30T02:00:12.061Z,26.10
2023-01-30T02:02:16.703Z,24.05
2023-01-30T02:04:39.801Z,25.00
2023-01-30T02:06:43.852Z,24.38
2023-01-30T02:08:51.254Z,26.02
2023-01-30T02:10:59.848Z,27.95
2023-01-30T02:13:02.489Z,23.55
2023-01-30T02:15:06.128Z,24.95
2023-01-30T02:17:08.691Z,25.08
2023-01-30T02:19:25.067Z,23.60
2023-01-30T02:22:08.956Z,24.55
2023-01-30T02:24:27.414Z,23.23
2023-01-30T02:27:03.886Z,21.67
2023-01-30T02:29:34.717Z,21.48
2023-01-30T02:31:45.239Z,21.23
2023-01-30T02:33:58.248Z,19.83
2023-01-30T02:36:11.952Z,23.13
2023-01-30T02:38:31.845Z,23.63
2023-01-30T02:40:47.293Z,22.70
2023-01-30T02:42:55.431Z,27.85
2023-01-30T02:45:06.383Z,24.15
2023-01-30T02:47:14.640Z,25.63
2023-01-30T02:49:23.445Z,22.23
2023-01-30T02:51:30.908Z,21.88
2023-01-30T02:53:33.936Z,22.77
2023-01-30T02:55:36.679Z,20.88
2023-01-30T02:57:39.240Z,21.83
2023-01-30T02:59:45.026Z,23.85
2023-01-30T03:02:09.901Z,24.08
2023-01-30T03:04:31.710Z,25.05
2023-01-30T03:06:51.484Z,28.33
2023-01-30T03:09:07.220Z,26.48
2023-01-30T03:11:11.613Z,24.60
2023-01-30T03:13:22.652Z,23.08
2023-01-30T03:15:30.998Z,24.75
2023-01-30T03:17:35.266Z,24.77
2023-01-30T03:19:39.440Z,25.85
2023-01-30T03:21:44.474Z,27.25
2023-01-30T03:23:47.708Z,22.77
2023-01-30T03:25:50.638Z,24.42
2023-01-30T03:27:55.396Z,26.13
2023-01-30T03:29:57.965Z,24.42
2023-01-30T03:32:00.566Z,26.23
2023-01-30T03:34:03.156Z,25.45
2023-01-30T03:36:07.693Z,26.65
2023-01-30T03:38:10.562Z,23.25
2023-01-30T03:40:14.373Z,23.90
2023-01-30T03:42:17.047Z,26.08
2023-01-30T03:44:19.736Z,26.80
2023-01-30T03:46:22.352Z,23.92
2023-01-30T03:48:24.921Z,22.50
2023-01-30T03:50:27.523Z,23.20
2023-01-30T03:52:31.490Z,22.90
2023-01-30T03:54:34.317Z,22.00
2023-01-30T03:56:36.943Z,24.67
2023-01-30T03:58:39.745Z,25.33
2023-01-30T04:00:42.572Z,25.63
2023-01-30T04:02:45.169Z,22.58
2023-01-30T04:04:50.612Z,21.90
2023-01-30T04:06:53.244Z,25.45
2023-01-30T04:08:57.222Z,24.35
2023-01-30T04:10:59.873Z,21.42
2023-01-30T04:13:02.577Z,24.63
2023-01-30T04:15:05.877Z,25.17
2023-01-30T04:17:08.395Z,20.98
2023-01-30T04:19:10.979Z,23.23
2023-01-30T04:21:14.102Z,22.88
2023-01-30T04:23:16.698Z,24.65
2023-01-30T04:25:21.204Z,23.08
2023-01-30T04:27:23.968Z,24.73
2023-01-30T04:29:26.506Z,23.85
2023-01-30T04:31:29.121Z,24.67
2023-01-30T04:33:35.179Z,26.05
2023-01-30T04:35:37.726Z,22.35
2023-01-30T04:37:40.324Z,25.88
2023-01-30T04:39:42.888Z,24.00
2023-01-30T04:41:47.989Z,22.27
2023-01-30T04:43:50.531Z,23.25
2023-01-30T04:45:53.747Z,24.85
2023-01-30T04:47:56.305Z,24.85
2023-01-30T04:49:58.865Z,22.55
2023-01-30T04:52:01.548Z,22.73
2023-01-30T04:54:04.311Z,26.58
2023-01-30T04:56:08.248Z,25.83
2023-01-30T04:58:12.236Z,22.50
2023-01-30T05:00:15.355Z,27.08
2023-01-30T05:02:17.979Z,22.60
2023-01-30T05:04:20.516Z,24.35
2023-01-30T05:06:24.194Z,23.38
2023-01-30T05:08:26.759Z,23.35
2023-01-30T05:10:29.688Z,25.73
2023-01-30T05:12:32.260Z,24.98
2023-01-30T05:14:36.183Z,21.25
2023-01-30T05:16:38.735Z,27.80
2023-01-30T05:18:41.700Z,23.05
2023-01-30T05:20:44.271Z,21.30
2023-01-30T05:22:46.827Z,23.25
2023-01-30T05:24:49.373Z,24.02
2023-01-30T05:26:51.918Z,20.90
2023-01-30T05:28:55.896Z,28.30
2023-01-30T05:31:03.433Z,23.85
2023-01-30T05:33:06.061Z,21.60
2023-01-30T05:35:09.483Z,21.42
2023-01-30T05:37:13.288Z,24.67
2023-01-30T05:39:16.081Z,22.30
2023-01-30T05:41:19.170Z,22.90
2023-01-30T05:43:21.697Z,23.63
2023-01-30T05:45:24.254Z,23.58
2023-01-30T05:47:28.169Z,20.42
2023-01-30T05:49:30.858Z,20.42
2023-01-30T05:51:33.537Z,21.45
2023-01-30T05:53:37.080Z,19.60
2023-01-30T05:55:39.656Z,19.23
2023-01-30T05:57:42.246Z,20.13
2023-01-30T05:59:44.788Z,19.23
2023-01-30T06:01:47.398Z,19.98
2023-01-30T06:03:51.497Z,18.17
2023-01-30T06:05:54.128Z,19.02
2023-01-30T06:07:56.699Z,18.95
2023-01-30T06:09:59.295Z,16.85
2023-01-30T06:12:01.813Z,20.00
2023-01-30T06:14:04.418Z,17.88
2023-01-30T06:16:08.411Z,21.00
2023-01-30T06:18:11.098Z,23.80
2023-01-30T06:20:15.278Z,20.10
2023-01-30T06:22:17.810Z,18.95
2023-01-30T06:24:20.408Z,17.30
2023-01-30T06:26:23.006Z,18.83
2023-01-30T06:28:26.940Z,18.05
2023-01-30T06:30:29.506Z,18.73
2023-01-30T06:32:32.065Z,19.52
2023-01-30T06:34:34.659Z,13.45
2023-01-30T06:36:38.577Z,16.67
2023-01-30T06:38:41.167Z,17.40
2023-01-30T06:40:46.010Z,18.73
2023-01-30T06:42:49.541Z,17.27
2023-01-30T06:44:52.120Z,18.83
2023-01-30T06:46:57.639Z,18.13
2023-01-30T06:49:00.196Z,17.73
2023-01-30T06:51:02.807Z,19.25
2023-01-30T06:53:08.615Z,17.98
2023-01-30T06:55:12.079Z,20.17
2023-01-30T06:57:14.631Z,23.30
2023-01-30T06:59:17.230Z,17.35
2023-01-30T07:01:21.204Z,17.35
2023-01-30T07:03:23.870Z,17.42
2023-01-30T07:05:26.467Z,17.02
2023-01-30T07:07:29.206Z,17.42
2023-01-30T07:09:33.143Z,18.20
2023-01-30T07:11:35.702Z,18.30
2023-01-30T07:13:38.358Z,19.83
2023-01-30T07:15:41.004Z,19.45
2023-01-30T07:17:43.943Z,17.25
2023-01-30T07:19:46.799Z,17.02
2023-01-30T07:21:49.351Z,17.10
2023-01-30T07:23:51.952Z,17.10
2023-01-30T07:25:55.869Z,17.25
2023-01-30T07:28:01.867Z,15.27
2023-01-30T07:30:04.887Z,17.83
2023-01-30T07:32:09.014Z,17.75
2023-01-30T07:34:11.532Z,16.13
2023-01-30T07:36:14.147Z,16.15
2023-01-30T07:38:16.673Z,14.52
2023-01-30T07:40:20.403Z,17.02
2023-01-30T07:42:24.330Z,19.45
2023-01-30T07:44:26.897Z,16.02
2023-01-30T07:46:34.834Z,16.13
2023-01-30T07:48:37.463Z,13.35
2023-01-30T07:50:40.443Z,12.88
2023-01-30T07:52:42.980Z,14.20
2023-01-30T07:54:45.512Z,13.27
2023-01-30T07:56:48.083Z,10.60
2023-01-30T07:58:52.322Z,12.88
2023-01-30T08:00:56.625Z,12.23
2023-01-30T08:02:59.639Z,12.32
2023-01-30T08:05:03.980Z,10.98
2023-01-30T08:07:07.782Z,11.55
2023-01-30T08:09:10.473Z,11.32
2023-01-30T08:11:13.329Z,13.80
2023-01-30T08:13:16.110Z,12.35
2023-01-30T08:15:21.961Z,12.43
2023-01-30T08:17:25.419Z,10.18
2023-01-30T08:19:27.952Z,17.92
2023-01-30T08:21:30.473Z,12.73
2023-01-30T08:23:33.639Z,14.68
2023-01-30T08:25:36.770Z,15.27
2023-01-30T08:27:39.308Z,10.75
2023-01-30T08:29:41.911Z,14.85
2023-01-30T08:31:45.879Z,12.90
2023-01-30T08:33:49.137Z,12.02
2023-01-30T08:35:52.603Z,13.32
2023-01-30T08:37:55.412Z,16.08
2023-01-30T08:39:57.954Z,13.13
2023-01-30T08:42:00.494Z,13.20
2023-01-30T08:44:03.122Z,13.15
2023-01-30T08:46:06.171Z,11.57
2023-01-30T08:48:11.243Z,10.48
2023-01-30T08:50:13.806Z,11.95
2023-01-30T08:52:16.345Z,10.18
2023-01-30T08:54:18.897Z,15.05
2023-01-30T08:56:21.517Z,10.90
2023-01-30T08:58:24.104Z,9.93
2023-01-30T09:00:28.234Z,11.65
2023-01-30T09:02:30.903Z,10.70
2023-01-30T09:04:35.178Z,10.38
2023-01-30T09:06:37.732Z,12.18
2023-01-30T09:08:40.299Z,12.93
2023-01-30T09:10:42.886Z,8.98
2023-01-30T09:12:46.485Z,11.00
2023-01-30T09:14:49.036Z,13.02
2023-01-30T09:16:55.869Z,11.43
2023-01-30T09:18:58.486Z,9.48
2023-01-30T09:21:06.287Z,12.90
2023-01-30T09:23:08.977Z,10.38
2023-01-30T09:25:11.541Z,10.50
2023-01-30T09:27:14.115Z,9.10
2023-01-30T09:29:16.694Z,9.98
2023-01-30T09:31:19.417Z,9.88
2023-01-30T09:33:22.057Z,8.77
2023-01-30T09:35:24.595Z,9.75
2023-01-30T09:37:29.010Z,8.68
2023-01-30T09:39:31.571Z,10.98
2023-01-30T09:41:53.404Z,8.98
2023-01-30T09:44:16.232Z,8.07
2023-01-30T09:46:31.051Z,9.68
2023-01-30T09:48:42.471Z,10.68
2023-01-30T09:50:57.876Z,10.00
2023-01-30T09:53:10.306Z,8.88
2023-01-30T09:55:19.343Z,12.85
2023-01-30T09:57:24.297Z,9.18
2023-01-30T09:59:36.059Z,8.90
2023-01-30T10:03:57.266Z,9.38
2023-01-30T10:06:06.032Z,11.15
2023-01-30T10:08:24.575Z,13.05
2023-01-30T10:10:46.259Z,17.05
2023-01-30T10:12:59.416Z,17.33
2023-01-30T10:15:28.754Z,10.18
2023-01-30T10:17:38.379Z,9.80
2023-01-30T10:19:55.418Z,10.90
2023-01-30T10:22:03.351Z,7.50
2023-01-30T10:24:24.108Z,5.85
2023-01-30T10:26:29.519Z,15.70
2023-01-30T10:28:35.946Z,7.70
2023-01-30T10:30:42.544Z,7.43
2023-01-30T10:32:49.813Z,7.18
2023-01-30T10:34:56.859Z,10.40
2023-01-30T10:37:08.479Z,12.63
2023-01-30T10:39:23.580Z,7.47
2023-01-30T10:41:32.023Z,7.70
2023-01-30T10:43:41.529Z,8.55
2023-01-30T10:45:52.383Z,12.85
2023-01-30T10:48:05.794Z,12.10
2023-01-30T10:50:16.651Z,8.40
2023-01-30T10:52:28.469Z,7.00
2023-01-30T10:54:38.702Z,27.08
2023-01-30T10:56:48.368Z,6.75
2023-01-30T10:58:59.671Z,9.07
2023-01-30T11:01:06.840Z,7.28
2023-01-30T11:03:27.414Z,9.57
2023-01-30T11:05:39.525Z,6.30
2023-01-30T11:07:44.910Z,6.63
2023-01-30T11:09:50.007Z,7.25
2023-01-30T11:11:54.377Z,7.30
2023-01-30T11:14:07.188Z,6.25
2023-01-30T11:16:13.219Z,5.78
2023-01-30T11:20:41.523Z,7.68
2023-01-30T11:22:48.923Z,12.02
2023-01-30T11:25:02.120Z,6.43
2023-01-30T11:27:12.589Z,7.95
2023-01-30T11:29:27.626Z,5.47
2023-01-30T11:31:40.932Z,5.65
2023-01-30T11:33:44.316Z,7.07
2023-01-30T11:35:54.851Z,6.80
2023-01-30T11:38:12.592Z,4.90
2023-01-30T11:40:26.422Z,6.32
2023-01-30T11:42:32.527Z,7.28
2023-01-30T11:44:37.742Z,8.50
2023-01-30T11:46:43.903Z,9.30
2023-01-30T11:49:02.971Z,5.15
2023-01-30T11:51:18.023Z,6.35
2023-01-30T11:53:29.196Z,4.72
2023-01-30T11:55:36.424Z,5.28
2023-01-30T11:57:44.317Z,4.13
2023-01-30T11:59:50.848Z,5.70
2023-01-30T12:02:02.661Z,6.30
2023-01-30T12:04:10.085Z,5.57
2023-01-30T12:06:13.012Z,4.75
2023-01-30T12:08:40.700Z,3.03
2023-01-30T12:10:48.873Z,3.70
2023-01-30T12:12:53.441Z,6.13
2023-01-30T12:15:05.849Z,2.72
2023-01-30T12:17:15.714Z,11.45
2023-01-30T12:19:30.155Z,5.28
2023-01-30T12:21:41.520Z,6.05
2023-01-30T12:23:47.374Z,4.80
2023-01-30T12:25:59.992Z,5.63
2023-01-30T12:28:08.967Z,5.68
2023-01-30T12:30:23.523Z,5.43
2023-01-30T12:32:28.544Z,9.43
2023-01-30T12:34:31.805Z,7.50
2023-01-30T12:36:46.342Z,5.95
2023-01-30T12:39:05.900Z,6.10
2023-01-30T12:41:25.200Z,5.32
2023-01-30T12:43:50.696Z,5.50
2023-01-30T12:46:05.511Z,8.60
2023-01-30T12:48:22.954Z,7.85
2023-01-30T12:50:33.198Z,5.78
2023-01-30T12:53:23.019Z,6.13
2023-01-30T12:55:37.480Z,8.57
2023-01-30T12:57:47.210Z,5.28
2023-01-30T13:00:03.484Z,4.90
2023-01-30T13:02:26.509Z,5.80
2023-01-30T13:04:56.329Z,4.03
2023-01-30T13:07:16.343Z,7.47
2023-01-30T13:09:37.776Z,6.50
2023-01-30T13:11:49.141Z,6.18
2023-01-30T13:13:57.744Z,5.20
2023-01-30T13:16:07.770Z,6.38
2023-01-30T13:18:16.550Z,8.63
2023-01-30T13:20:32.032Z,6.45
2023-01-30T13:22:42.784Z,7.55
2023-01-30T13:24:55.831Z,7.07
2023-01-30T13:27:02.026Z,6.75
2023-01-30T13:29:14.204Z,5.75
2023-01-30T13:31:21.325Z,6.72
2023-01-30T13:33:28.109Z,9.57
2023-01-30T13:35:34.468Z,5.97
2023-01-30T13:37:40.444Z,7.55
2023-01-30T13:39:48.508Z,6.80
2023-01-30T13:41:57.465Z,8.70
2023-01-30T13:44:01.644Z,7.65
2023-01-30T13:46:08.966Z,8.63
2023-01-30T13:48:25.576Z,8.40
2023-01-30T13:50:48.277Z,7.45
2023-01-30T13:52:57.993Z,6.93
2023-01-30T13:55:09.998Z,6.60
2023-01-30T13:57:25.466Z,7.45
2023-01-30T13:59:45.200Z,7.65
2023-01-30T14:02:17.493Z,6.55
2023-01-30T14:04:45.136Z,5.97
2023-01-30T14:06:47.750Z,7.38
2023-01-30T14:08:53.458Z,5.28
2023-01-30T14:10:58.335Z,6.03
2023-01-30T14:13:07.017Z,7.68
2023-01-30T14:15:28.824Z,6.93
2023-01-30T14:17:33.021Z,8.80
2023-01-30T14:19:44.633Z,6.70
2023-01-30T14:21:55.758Z,8.07
2023-01-30T14:24:01.583Z,7.40
2023-01-30T14:26:04.828Z,7.28
2023-01-30T14:28:52.161Z,6.28
2023-01-30T14:30:56.289Z,6.88
2023-01-30T14:33:01.998Z,6.30
2023-01-30T14:35:24.815Z,6.50
2023-01-30T14:37:46.670Z,6.25
2023-01-30T14:39:54.005Z,8.35
2023-01-30T14:42:25.988Z,5.18
2023-01-30T14:45:02.965Z,5.10
2023-01-30T14:47:42.231Z,7.45
2023-01-30T14:49:44.962Z,7.13
2023-01-30T14:51:48.818Z,6.35
2023-01-30T14:53:55.201Z,6.43
2023-01-30T14:56:01.989Z,7.22
2023-01-30T14:58:05.187Z,9.73
2023-01-30T15:00:19.425Z,6.90
2023-01-30T15:02:27.398Z,7.20
2023-01-30T15:04:32.901Z,7.90
2023-01-30T15:06:38.224Z,9.40
2023-01-30T15:08:44.082Z,6.53
2023-01-30T15:10:59.954Z,5.60
2023-01-30T15:13:32.238Z,6.28
2023-01-30T15:15:46.189Z,8.45
2023-01-30T15:18:08.369Z,9.07
2023-01-30T15:20:21.758Z,9.05
2023-01-30T15:22:37.467Z,7.25
2023-01-30T15:25:22.910Z,8.95
2023-01-30T15:27:31.970Z,7.68
2023-01-30T15:30:12.503Z,7.03
2023-01-30T15:32:19.087Z,8.40
2023-01-30T15:34:22.443Z,7.72
2023-01-30T15:36:28.698Z,8.00
2023-01-30T15:38:34.712Z,7.70
2023-01-30T15:40:37.911Z,7.47
2023-01-30T15:42:40.641Z,10.45
2023-01-30T15:44:58.517Z,8.20
2023-01-30T15:47:16.440Z,7.72
2023-01-30T15:49:53.270Z,7.85
2023-01-30T15:52:00.990Z,8.38
2023-01-30T15:54:11.159Z,5.63
2023-01-30T15:56:21.598Z,5.97
2023-01-30T15:58:25.655Z,5.55
2023-01-30T16:00:31.610Z,7.45
2023-01-30T16:02:36.973Z,5.10
2023-01-30T16:04:39.637Z,7.03
2023-01-30T16:06:42.248Z,6.32
2023-01-30T16:08:56.201Z,6.75
2023-01-30T16:11:03.043Z,5.97
2023-01-30T16:13:05.804Z,6.68
2023-01-30T16:15:19.576Z,8.90
2023-01-30T16:17:22.966Z,7.72
2023-01-30T16:19:29.476Z,5.35
2023-01-30T16:21:35.311Z,7.90
2023-01-30T16:23:41.430Z,10.32
2023-01-30T16:25:48.311Z,5.55
2023-01-30T16:27:53.698Z,8.60
2023-01-30T16:29:58.772Z,6.93
2023-01-30T16:32:01.857Z,7.18
2023-01-30T16:34:05.403Z,8.45
2023-01-30T16:36:34.004Z,8.70
2023-01-30T16:38:39.397Z,6.80
2023-01-30T16:40:47.178Z,6.25
2023-01-30T16:43:01.943Z,4.60
2023-01-30T16:46:06.188Z,6.10
2023-01-30T16:48:25.466Z,4.82
2023-01-30T16:50:28.150Z,9.32
2023-01-30T16:52:37.006Z,7.55
2023-01-30T16:54:46.134Z,6.35
2023-01-30T16:56:52.461Z,6.07
2023-01-30T16:58:59.002Z,6.38
2023-01-30T17:01:03.437Z,6.50
2023-01-30T17:03:08.321Z,7.68
2023-01-30T17:05:19.520Z,6.15
2023-01-30T17:07:35.999Z,5.25
2023-01-30T17:09:42.923Z,5.50
2023-01-30T17:11:45.509Z,8.07
2023-01-30T17:13:48.271Z,6.47
2023-01-30T17:15:52.236Z,6.88
2023-01-30T17:17:54.804Z,10.70
2023-01-30T17:19:59.530Z,7.63
2023-01-30T17:22:04.109Z,6.40
2023-01-30T17:24:07.788Z,6.43
2023-01-30T17:26:12.955Z,7.32
2023-01-30T17:28:21.033Z,7.70
2023-01-30T17:30:23.690Z,9.32
2023-01-30T17:32:27.804Z,8.10
2023-01-30T17:34:30.324Z,8.15
2023-01-30T17:36:32.930Z,9.43
2023-01-30T17:38:35.522Z,11.02
2023-01-30T17:40:39.242Z,8.60
2023-01-30T17:42:41.816Z,7.85
2023-01-30T17:44:44.486Z,8.82
2023-01-30T17:46:48.918Z,8.38
2023-01-30T17:48:52.859Z,10.05
2023-01-30T17:50:55.430Z,8.05
2023-01-30T17:52:57.986Z,6.80
2023-01-30T17:55:00.583Z,9.30
2023-01-30T17:57:05.118Z,8.77
2023-01-30T17:59:13.582Z,7.60
2023-01-30T18:01:17.870Z,8.48
2023-01-30T18:03:20.564Z,7.22
2023-01-30T18:05:24.660Z,7.45
2023-01-30T18:07:30.289Z,8.65
2023-01-30T18:09:33.500Z,7.15
2023-01-30T18:11:36.178Z,8.80
2023-01-30T18:13:40.460Z,6.38
2023-01-30T18:15:43.086Z,9.90
2023-01-30T18:17:47.939Z,8.15
2023-01-30T18:19:50.543Z,7.30
2023-01-30T18:21:54.491Z,10.48
2023-01-30T18:23:57.149Z,10.20
2023-01-30T18:25:59.741Z,7.53
2023-01-30T18:28:02.991Z,8.38
2023-01-30T18:30:06.335Z,7.13
2023-01-30T18:32:08.946Z,8.13
2023-01-30T18:34:12.353Z,8.38
2023-01-30T18:36:17.356Z,10.25
2023-01-30T18:38:21.254Z,8.73
2023-01-30T18:40:24.707Z,9.15
2023-01-30T18:42:27.313Z,9.13
2023-01-30T18:44:29.869Z,10.63
2023-01-30T18:46:33.605Z,11.68
2023-01-30T18:48:36.959Z,10.90
2023-01-30T18:50:39.542Z,9.07
2023-01-30T18:52:42.096Z,10.82
2023-01-30T18:54:45.971Z,10.27
2023-01-30T18:56:48.555Z,10.98
2023-01-30T18:58:52.315Z,11.00
2023-01-30T19:00:54.909Z,14.60
2023-01-30T19:02:57.522Z,11.38
2023-01-30T19:05:00.129Z,11.82
2023-01-30T19:07:02.727Z,10.18
2023-01-30T19:09:06.349Z,14.60
2023-01-30T19:11:29.413Z,10.02
2023-01-30T19:13:37.312Z,11.52
2023-01-30T19:15:42.363Z,11.45
2023-01-30T19:17:47.858Z,9.73
2023-01-30T19:19:50.403Z,12.68
2023-01-30T19:21:53.318Z,11.35
2023-01-30T19:23:56.363Z,10.95
2023-01-30T19:26:00.893Z,14.70
2023-01-30T19:28:06.486Z,12.55
2023-01-30T19:30:13.083Z,11.50
2023-01-30T19:32:15.647Z,12.77
2023-01-30T19:34:18.672Z,12.63
2023-01-30T19:36:23.305Z,12.23
2023-01-30T19:38:25.932Z,12.27
2023-01-30T19:40:28.563Z,14.45
2023-01-30T19:42:31.130Z,11.32
2023-01-30T19:44:35.043Z,12.52
2023-01-30T19:46:37.709Z,9.07
2023-01-30T19:48:41.235Z,9.40
2023-01-30T19:50:43.767Z,10.80
2023-01-30T19:52:47.267Z,17.13
2023-01-30T19:54:49.783Z,13.60
2023-01-30T19:56:52.375Z,13.35
2023-01-30T19:58:57.122Z,10.68
2023-01-30T20:01:07.370Z,11.07
2023-01-30T20:03:12.748Z,16.35
2023-01-30T20:05:16.006Z,11.02
2023-01-30T20:07:18.556Z,13.27
2023-01-30T20:09:21.140Z,11.75
2023-01-30T20:11:23.789Z,9.10
2023-01-30T20:13:26.416Z,12.02
2023-01-30T20:15:29.225Z,11.23
2023-01-30T20:17:35.016Z,11.75
2023-01-30T20:19:37.668Z,13.85
2023-01-30T20:21:40.225Z,12.70
2023-01-30T20:23:44.769Z,14.73
2023-01-30T20:25:48.642Z,12.60
2023-01-30T20:27:51.199Z,9.63
2023-01-30T20:29:53.753Z,9.73
2023-01-30T20:31:56.401Z,10.13
2023-01-30T20:34:01.939Z,9.32
2023-01-30T20:36:05.977Z,11.43
2023-01-30T20:38:08.672Z,10.55
2023-01-30T20:40:12.474Z,10.45
2023-01-30T20:42:15.847Z,9.85
2023-01-30T20:44:20.453Z,11.40
2023-01-30T20:46:24.615Z,11.52
2023-01-30T20:48:27.234Z,9.93
2023-01-30T20:50:31.131Z,10.70
2023-01-30T20:52:33.717Z,12.63
2023-01-30T20:54:37.205Z,10.80
2023-01-30T20:56:43.660Z,8.68
2023-01-30T20:58:46.811Z,13.05
2023-01-30T21:00:49.399Z,13.13
2023-01-30T21:02:53.041Z,11.88
2023-01-30T21:04:55.566Z,15.57
2023-01-30T21:06:59.471Z,13.05
2023-01-30T21:09:03.759Z,12.90
2023-01-30T21:11:08.705Z,12.85
2023-01-30T21:13:11.292Z,12.57
2023-01-30T21:15:13.945Z,11.80
2023-01-30T21:17:16.536Z,9.98
2023-01-30T21:19:19.274Z,11.05
2023-01-30T21:21:24.922Z,8.80
2023-01-30T21:23:29.473Z,10.35
2023-01-30T21:25:32.303Z,11.00
2023-01-30T21:27:34.879Z,12.88
2023-01-30T21:29:37.891Z,10.05
2023-01-30T21:31:41.520Z,9.77
2023-01-30T21:33:44.710Z,9.65
2023-01-30T21:35:47.290Z,13.63
2023-01-30T21:38:07.259Z,8.75
2023-01-30T21:40:32.898Z,12.95
2023-01-30T21:42:53.660Z,9.27
2023-01-30T21:44:56.204Z,10.07
2023-01-30T21:46:58.808Z,9.55
2023-01-30T21:49:01.345Z,10.85
2023-01-30T21:51:11.786Z,9.73
2023-01-30T21:53:14.357Z,11.65
2023-01-30T21:55:18.668Z,9.43
2023-01-30T21:57:21.507Z,13.13
2023-01-30T21:59:24.035Z,9.43
2023-01-30T22:01:27.010Z,10.10
2023-01-30T22:03:29.643Z,10.32
2023-01-30T22:05:36.551Z,14.02
2023-01-30T22:07:39.897Z,10.25
2023-01-30T22:09:42.445Z,9.80
2023-01-30T22:11:46.378Z,9.27
2023-01-30T22:13:49.226Z,13.27
2023-01-30T22:15:51.776Z,13.15
2023-01-30T22:17:54.420Z,12.35
2023-01-30T22:19:57.010Z,13.50
2023-01-30T22:21:59.548Z,10.75
2023-01-30T22:24:03.521Z,9.50
2023-01-30T22:26:06.707Z,10.60
2023-01-30T22:28:10.592Z,10.10
2023-01-30T22:30:13.761Z,9.82
2023-01-30T22:32:16.299Z,9.85
2023-01-30T22:34:19.046Z,11.70
2023-01-30T22:36:24.015Z,13.98
2023-01-30T22:38:27.452Z,10.93
2023-01-30T22:40:29.988Z,9.45
2023-01-30T22:42:32.566Z,10.38
2023-01-30T22:44:36.406Z,9.93
2023-01-30T22:46:41.279Z,10.95
2023-01-30T22:48:44.405Z,10.05
2023-01-30T22:50:46.972Z,11.40
2023-01-30T22:52:49.498Z,9.60
2023-01-30T22:54:52.078Z,10.20
2023-01-30T22:56:54.696Z,9.43
2023-01-30T22:58:57.865Z,11.15
2023-01-30T23:01:14.785Z,9.95
2023-01-30T23:03:17.330Z,11.05
2023-01-30T23:05:20.309Z,9.52
2023-01-30T23:07:23.080Z,8.77
2023-01-30T23:09:25.600Z,8.93
2023-01-30T23:11:30.983Z,9.23
2023-01-30T23:13:32.643Z,11.45
2023-01-30T23:18:00.843Z,8.63
2023-01-30T23:20:03.366Z,8.52
2023-01-30T23:22:05.894Z,9.55
2023-01-30T23:24:11.296Z,9.25
2023-01-30T23:26:14.207Z,11.95
2023-01-30T23:28:16.872Z,9.80
2023-01-30T23:30:19.402Z,12.48
2023-01-30T23:32:23.509Z,8.50
2023-01-30T23:34:27.426Z,10.85
2023-01-30T23:36:30.795Z,15.70
2023-01-30T23:38:33.227Z,8.77
2023-01-30T23:40:35.826Z,8.65
2023-01-30T23:42:38.827Z,7.70
2023-01-30T23:44:41.426Z,12.07
2023-01-30T23:46:43.991Z,10.77
2023-01-30T23:48:48.161Z,9.45
2023-01-30T23:50:52.098Z,11.70
2023-01-30T23:52:54.662Z,13.02
2023-01-30T23:54:57.211Z,9.95
2023-01-30T23:56:59.805Z,10.13
2023-01-30T23:59:03.185Z,10.18
